Denny, Texas
Current Conditions -  °F | °C
As of 4:35 PM on Monday 26 Jan 2015 (Local Time) from KLXY Reporting Station
Clear Clear  
Wind Chill: 67°   Ceiling: Unl
Heat Index: 67°   Visibility: 10mi
Dew Point: 40°   Wind: 8mph
Humidity: 36%   Direction: 240°WSW
Pressure: 30.11"   Gusts: NA
Location:  31.3327°N, 96.6013°W
Report Text: KLXY 262235Z AUTO 24007KT 10SM CLR 20/04 A3011 RMK AO2 T01970042
Loading
Personal Weather Stations






























Interactive Weather Map New forecast layout! Learn more

10-Day Weather Forecast

Advertisements
Track Severe Weather on mobile